sensor_id;sensor_type;location;lat;lon;timestamp;temperature;humidity
65989;HTU21D;53592;51.402;6.054;2022-12-10T00:01:25;2.13;76.79
65989;HTU21D;53592;51.402;6.054;2022-12-10T00:03:52;2.08;76.89
65989;HTU21D;53592;51.402;6.054;2022-12-10T00:06:20;2.07;76.93
65989;HTU21D;53592;51.402;6.054;2022-12-10T00:08:46;2.00;76.80
65989;HTU21D;53592;51.402;6.054;2022-12-10T00:11:14;1.98;77.02
65989;HTU21D;53592;51.402;6.054;2022-12-10T00:13:40;1.98;76.95
65989;HTU21D;53592;51.402;6.054;2022-12-10T00:16:08;1.96;76.79
65989;HTU21D;53592;51.402;6.054;2022-12-10T00:18:35;1.97;76.73
65989;HTU21D;53592;51.402;6.054;2022-12-10T00:21:08;1.93;77.01
65989;HTU21D;53592;51.402;6.054;2022-12-10T00:23:35;1.92;77.08
65989;HTU21D;53592;51.402;6.054;2022-12-10T00:28:57;1.95;77.01
65989;HTU21D;53592;51.402;6.054;2022-12-10T00:31:25;1.90;76.88
65989;HTU21D;53592;51.402;6.054;2022-12-10T00:33:54;1.81;77.11
65989;HTU21D;53592;51.402;6.054;2022-12-10T00:36:27;1.81;77.42
65989;HTU21D;53592;51.402;6.054;2022-12-10T00:38:53;1.82;77.17
65989;HTU21D;53592;51.402;6.054;2022-12-10T00:41:19;1.76;77.10
65989;HTU21D;53592;51.402;6.054;2022-12-10T00:43:44;1.67;77.33
65989;HTU21D;53592;51.402;6.054;2022-12-10T00:46:11;1.64;77.65
65989;HTU21D;53592;51.402;6.054;2022-12-10T00:48:37;1.65;77.87
65989;HTU21D;53592;51.402;6.054;2022-12-10T00:51:15;1.68;77.76
65989;HTU21D;53592;51.402;6.054;2022-12-10T00:53:43;1.63;77.60
65989;HTU21D;53592;51.402;6.054;2022-12-10T00:56:10;1.58;77.65
65989;HTU21D;53592;51.402;6.054;2022-12-10T00:58:37;1.52;77.67
65989;HTU21D;53592;51.402;6.054;2022-12-10T01:03:46;1.33;77.89
65989;HTU21D;53592;51.402;6.054;2022-12-10T01:06:18;1.34;78.24
65989;HTU21D;53592;51.402;6.054;2022-12-10T01:08:46;1.36;78.16
65989;HTU21D;53592;51.402;6.054;2022-12-10T01:11:15;1.34;78.16
65989;HTU21D;53592;51.402;6.054;2022-12-10T01:13:42;1.32;78.09
65989;HTU21D;53592;51.402;6.054;2022-12-10T01:16:09;1.24;78.11
65989;HTU21D;53592;51.402;6.054;2022-12-10T01:18:35;1.17;78.21
65989;HTU21D;53592;51.402;6.054;2022-12-10T01:21:07;1.14;78.47
65989;HTU21D;53592;51.402;6.054;2022-12-10T01:23:34;1.13;78.44
65989;HTU21D;53592;51.402;6.054;2022-12-10T01:26:01;1.18;78.59
65989;HTU21D;53592;51.402;6.054;2022-12-10T01:28:29;1.22;78.69
65989;HTU21D;53592;51.402;6.054;2022-12-10T01:30:55;1.21;78.16
65989;HTU21D;53592;51.402;6.054;2022-12-10T01:33:20;1.18;77.91
65989;HTU21D;53592;51.402;6.054;2022-12-10T01:35:46;1.11;77.89
65989;HTU21D;53592;51.402;6.054;2022-12-10T01:38:11;1.03;78.03
65989;HTU21D;53592;51.402;6.054;2022-12-10T01:40:38;0.94;78.14
65989;HTU21D;53592;51.402;6.054;2022-12-10T01:43:04;0.91;78.43
65989;HTU21D;53592;51.402;6.054;2022-12-10T01:45:29;0.89;78.56
65989;HTU21D;53592;51.402;6.054;2022-12-10T01:47:56;0.84;78.41
65989;HTU21D;53592;51.402;6.054;2022-12-10T01:50:21;0.76;78.51
65989;HTU21D;53592;51.402;6.054;2022-12-10T01:52:47;0.65;78.68
65989;HTU21D;53592;51.402;6.054;2022-12-10T01:55:42;0.58;78.98
65989;HTU21D;53592;51.402;6.054;2022-12-10T01:58:10;0.59;79.40
65989;HTU21D;53592;51.402;6.054;2022-12-10T02:06:43;0.67;78.85
65989;HTU21D;53592;51.402;6.054;2022-12-10T02:12:34;0.65;78.75
65989;HTU21D;53592;51.402;6.054;2022-12-10T02:23:10;0.48;78.76
65989;HTU21D;53592;51.402;6.054;2022-12-10T02:25:59;0.42;79.10
65989;HTU21D;53592;51.402;6.054;2022-12-10T02:31:29;0.31;79.43
65989;HTU21D;53592;51.402;6.054;2022-12-10T02:34:00;0.23;79.36
65989;HTU21D;53592;51.402;6.054;2022-12-10T02:36:31;0.17;79.65
65989;HTU21D;53592;51.402;6.054;2022-12-10T02:39:02;0.17;79.91
65989;HTU21D;53592;51.402;6.054;2022-12-10T02:41:34;0.18;80.01
65989;HTU21D;53592;51.402;6.054;2022-12-10T02:44:04;0.17;79.56
65989;HTU21D;53592;51.402;6.054;2022-12-10T02:46:34;0.05;80.07
65989;HTU21D;53592;51.402;6.054;2022-12-10T02:49:04;0.03;80.36
65989;HTU21D;53592;51.402;6.054;2022-12-10T02:51:31;0.02;80.56
65989;HTU21D;53592;51.402;6.054;2022-12-10T02:54:06;-0.01;80.77
65989;HTU21D;53592;51.402;6.054;2022-12-10T02:56:44;-0.02;80.86
65989;HTU21D;53592;51.402;6.054;2022-12-10T03:03:07;-0.00;80.64
65989;HTU21D;53592;51.402;6.054;2022-12-10T03:05:49;-0.05;80.42
65989;HTU21D;53592;51.402;6.054;2022-12-10T03:08:30;-0.02;80.78
65989;HTU21D;53592;51.402;6.054;2022-12-10T03:13:58;0.07;80.53
65989;HTU21D;53592;51.402;6.054;2022-12-10T03:16:31;0.05;80.32
65989;HTU21D;53592;51.402;6.054;2022-12-10T03:19:04;0.01;80.43
65989;HTU21D;53592;51.402;6.054;2022-12-10T03:21:33;-0.02;80.57
65989;HTU21D;53592;51.402;6.054;2022-12-10T03:24:00;0.03;81.04
65989;HTU21D;53592;51.402;6.054;2022-12-10T03:26:27;0.12;80.79
65989;HTU21D;53592;51.402;6.054;2022-12-10T03:29:01;0.16;80.66
65989;HTU21D;53592;51.402;6.054;2022-12-10T03:31:30;0.23;80.56
65989;HTU21D;53592;51.402;6.054;2022-12-10T03:33:56;0.23;80.26
65989;HTU21D;53592;51.402;6.054;2022-12-10T03:36:23;0.23;80.43
65989;HTU21D;53592;51.402;6.054;2022-12-10T03:38:49;0.23;80.56
65989;HTU21D;53592;51.402;6.054;2022-12-10T03:41:15;0.25;80.88
65989;HTU21D;53592;51.402;6.054;2022-12-10T03:43:50;0.25;80.94
65989;HTU21D;53592;51.402;6.054;2022-12-10T03:46:16;0.29;81.01
65989;HTU21D;53592;51.402;6.054;2022-12-10T03:48:41;0.28;81.01
65989;HTU21D;53592;51.402;6.054;2022-12-10T03:51:07;0.27;81.37
65989;HTU21D;53592;51.402;6.054;2022-12-10T03:53:32;0.25;81.46
65989;HTU21D;53592;51.402;6.054;2022-12-10T03:55:57;0.23;81.91
65989;HTU21D;53592;51.402;6.054;2022-12-10T03:58:23;0.22;82.39
65989;HTU21D;53592;51.402;6.054;2022-12-10T04:00:48;0.21;82.64
65989;HTU21D;53592;51.402;6.054;2022-12-10T04:03:14;0.22;83.09
65989;HTU21D;53592;51.402;6.054;2022-12-10T04:05:39;0.27;83.36
65989;HTU21D;53592;51.402;6.054;2022-12-10T04:08:05;0.35;82.94
65989;HTU21D;53592;51.402;6.054;2022-12-10T04:10:35;0.27;83.59
65989;HTU21D;53592;51.402;6.054;2022-12-10T04:13:01;0.22;84.05
65989;HTU21D;53592;51.402;6.054;2022-12-10T04:15:45;0.30;84.23
65989;HTU21D;53592;51.402;6.054;2022-12-10T04:18:29;0.32;84.27
65989;HTU21D;53592;51.402;6.054;2022-12-10T04:20:54;0.33;84.43
65989;HTU21D;53592;51.402;6.054;2022-12-10T04:23:38;0.40;84.67
65989;HTU21D;53592;51.402;6.054;2022-12-10T04:26:22;0.49;84.61
65989;HTU21D;53592;51.402;6.054;2022-12-10T04:29:07;0.58;84.36
65989;HTU21D;53592;51.402;6.054;2022-12-10T04:31:33;0.61;84.07
65989;HTU21D;53592;51.402;6.054;2022-12-10T04:33:59;0.55;84.19
65989;HTU21D;53592;51.402;6.054;2022-12-10T04:36:24;0.57;84.35
65989;HTU21D;53592;51.402;6.054;2022-12-10T04:38:50;0.57;84.47
65989;HTU21D;53592;51.402;6.054;2022-12-10T04:41:15;0.65;84.54
65989;HTU21D;53592;51.402;6.054;2022-12-10T04:43:42;0.65;84.27
65989;HTU21D;53592;51.402;6.054;2022-12-10T04:46:09;0.65;84.40
65989;HTU21D;53592;51.402;6.054;2022-12-10T04:48:35;0.71;84.35
65989;HTU21D;53592;51.402;6.054;2022-12-10T04:51:00;0.65;84.49
65989;HTU21D;53592;51.402;6.054;2022-12-10T04:53:26;0.68;84.55
65989;HTU21D;53592;51.402;6.054;2022-12-10T04:55:51;0.74;84.42
65989;HTU21D;53592;51.402;6.054;2022-12-10T04:58:17;0.74;84.40
65989;HTU21D;53592;51.402;6.054;2022-12-10T05:00:42;0.73;84.43
65989;HTU21D;53592;51.402;6.054;2022-12-10T05:03:08;0.77;84.58
65989;HTU21D;53592;51.402;6.054;2022-12-10T05:05:34;0.83;84.41
65989;HTU21D;53592;51.402;6.054;2022-12-10T05:08:00;0.86;84.27
65989;HTU21D;53592;51.402;6.054;2022-12-10T05:10:25;0.81;84.06
65989;HTU21D;53592;51.402;6.054;2022-12-10T05:12:52;0.80;84.11
65989;HTU21D;53592;51.402;6.054;2022-12-10T05:15:17;0.74;84.36
65989;HTU21D;53592;51.402;6.054;2022-12-10T05:17:43;0.77;84.68
65989;HTU21D;53592;51.402;6.054;2022-12-10T05:20:09;0.87;84.68
65989;HTU21D;53592;51.402;6.054;2022-12-10T05:22:35;0.89;84.43
65989;HTU21D;53592;51.402;6.054;2022-12-10T05:25:19;0.88;84.23
65989;HTU21D;53592;51.402;6.054;2022-12-10T05:30:18;0.79;83.84
65989;HTU21D;53592;51.402;6.054;2022-12-10T05:32:44;0.76;84.45
65989;HTU21D;53592;51.402;6.054;2022-12-10T05:35:09;0.68;84.47
65989;HTU21D;53592;51.402;6.054;2022-12-10T05:37:34;0.69;84.71
65989;HTU21D;53592;51.402;6.054;2022-12-10T05:40:00;0.63;84.73
65989;HTU21D;53592;51.402;6.054;2022-12-10T05:42:25;0.60;84.74
65989;HTU21D;53592;51.402;6.054;2022-12-10T05:44:51;0.59;85.09
65989;HTU21D;53592;51.402;6.054;2022-12-10T05:47:16;0.54;85.22
65989;HTU21D;53592;51.402;6.054;2022-12-10T05:49:42;0.62;85.43
65989;HTU21D;53592;51.402;6.054;2022-12-10T05:52:07;0.65;85.20
65989;HTU21D;53592;51.402;6.054;2022-12-10T05:54:34;0.69;84.80
65989;HTU21D;53592;51.402;6.054;2022-12-10T05:57:00;0.60;85.26
65989;HTU21D;53592;51.402;6.054;2022-12-10T05:59:25;0.61;85.22
65989;HTU21D;53592;51.402;6.054;2022-12-10T06:01:51;0.54;85.42
65989;HTU21D;53592;51.402;6.054;2022-12-10T06:04:16;0.52;85.16
65989;HTU21D;53592;51.402;6.054;2022-12-10T06:06:42;0.47;85.29
65989;HTU21D;53592;51.402;6.054;2022-12-10T06:09:11;0.49;85.55
65989;HTU21D;53592;51.402;6.054;2022-12-10T06:11:37;0.50;85.82
65989;HTU21D;53592;51.402;6.054;2022-12-10T06:14:03;0.55;85.86
65989;HTU21D;53592;51.402;6.054;2022-12-10T06:16:29;0.58;85.76
65989;HTU21D;53592;51.402;6.054;2022-12-10T06:18:55;0.62;85.35
65989;HTU21D;53592;51.402;6.054;2022-12-10T06:21:22;0.58;85.56
65989;HTU21D;53592;51.402;6.054;2022-12-10T06:23:49;0.57;85.19
65989;HTU21D;53592;51.402;6.054;2022-12-10T06:26:22;0.47;85.38
65989;HTU21D;53592;51.402;6.054;2022-12-10T06:28:48;0.44;85.53
65989;HTU21D;53592;51.402;6.054;2022-12-10T06:31:15;0.39;85.68
65989;HTU21D;53592;51.402;6.054;2022-12-10T06:33:42;0.39;85.86
65989;HTU21D;53592;51.402;6.054;2022-12-10T06:36:10;0.40;85.78
65989;HTU21D;53592;51.402;6.054;2022-12-10T06:38:36;0.42;85.56
65989;HTU21D;53592;51.402;6.054;2022-12-10T06:41:08;0.34;85.67
65989;HTU21D;53592;51.402;6.054;2022-12-10T06:43:35;0.33;86.07
65989;HTU21D;53592;51.402;6.054;2022-12-10T06:46:05;0.32;85.90
65989;HTU21D;53592;51.402;6.054;2022-12-10T06:48:31;0.34;86.09
65989;HTU21D;53592;51.402;6.054;2022-12-10T06:50:57;0.38;86.06
65989;HTU21D;53592;51.402;6.054;2022-12-10T06:53:22;0.42;86.12
65989;HTU21D;53592;51.402;6.054;2022-12-10T06:55:48;0.50;86.20
65989;HTU21D;53592;51.402;6.054;2022-12-10T06:58:14;0.57;85.64
65989;HTU21D;53592;51.402;6.054;2022-12-10T07:00:39;0.52;85.76
65989;HTU21D;53592;51.402;6.054;2022-12-10T07:03:05;0.58;85.32
65989;HTU21D;53592;51.402;6.054;2022-12-10T07:05:30;0.52;85.33
65989;HTU21D;53592;51.402;6.054;2022-12-10T07:07:56;0.53;85.50
65989;HTU21D;53592;51.402;6.054;2022-12-10T07:10:22;0.55;85.59
65989;HTU21D;53592;51.402;6.054;2022-12-10T07:12:47;0.59;85.03
65989;HTU21D;53592;51.402;6.054;2022-12-10T07:15:13;0.53;85.32
65989;HTU21D;53592;51.402;6.054;2022-12-10T07:17:38;0.51;85.38
65989;HTU21D;53592;51.402;6.054;2022-12-10T07:20:04;0.50;85.09
65989;HTU21D;53592;51.402;6.054;2022-12-10T07:22:30;0.44;85.38
65989;HTU21D;53592;51.402;6.054;2022-12-10T07:24:55;0.44;85.47
65989;HTU21D;53592;51.402;6.054;2022-12-10T07:27:21;0.43;85.54
65989;HTU21D;53592;51.402;6.054;2022-12-10T07:29:46;0.42;85.68
65989;HTU21D;53592;51.402;6.054;2022-12-10T07:32:12;0.44;85.52
65989;HTU21D;53592;51.402;6.054;2022-12-10T07:34:38;0.44;85.48
65989;HTU21D;53592;51.402;6.054;2022-12-10T07:37:03;0.48;85.68
65989;HTU21D;53592;51.402;6.054;2022-12-10T07:39:29;0.52;85.84
65989;HTU21D;53592;51.402;6.054;2022-12-10T07:41:55;0.59;85.57
65989;HTU21D;53592;51.402;6.054;2022-12-10T07:44:22;0.55;85.35
65989;HTU21D;53592;51.402;6.054;2022-12-10T07:46:51;0.54;85.51
65989;HTU21D;53592;51.402;6.054;2022-12-10T07:49:18;0.54;85.52
65989;HTU21D;53592;51.402;6.054;2022-12-10T07:51:45;0.64;85.28
65989;HTU21D;53592;51.402;6.054;2022-12-10T07:54:11;0.55;85.16
65989;HTU21D;53592;51.402;6.054;2022-12-10T07:56:36;0.52;85.51
65989;HTU21D;53592;51.402;6.054;2022-12-10T07:59:02;0.51;85.70
65989;HTU21D;53592;51.402;6.054;2022-12-10T08:01:27;0.58;85.56
65989;HTU21D;53592;51.402;6.054;2022-12-10T08:03:55;0.55;85.61
65989;HTU21D;53592;51.402;6.054;2022-12-10T08:06:22;0.59;85.79
65989;HTU21D;53592;51.402;6.054;2022-12-10T08:08:49;0.66;85.49
65989;HTU21D;53592;51.402;6.054;2022-12-10T08:11:17;0.67;85.40
65989;HTU21D;53592;51.402;6.054;2022-12-10T08:13:43;0.66;85.40
65989;HTU21D;53592;51.402;6.054;2022-12-10T08:16:15;0.71;85.60
65989;HTU21D;53592;51.402;6.054;2022-12-10T08:18:42;0.78;85.41
65989;HTU21D;53592;51.402;6.054;2022-12-10T08:21:14;0.84;84.92
65989;HTU21D;53592;51.402;6.054;2022-12-10T08:23:40;0.81;85.01
65989;HTU21D;53592;51.402;6.054;2022-12-10T08:26:09;0.79;84.71
65989;HTU21D;53592;51.402;6.054;2022-12-10T08:28:35;0.72;84.99
65989;HTU21D;53592;51.402;6.054;2022-12-10T08:31:01;0.69;85.12
65989;HTU21D;53592;51.402;6.054;2022-12-10T08:33:27;0.75;85.47
65989;HTU21D;53592;51.402;6.054;2022-12-10T08:35:57;0.82;85.37
65989;HTU21D;53592;51.402;6.054;2022-12-10T08:38:24;0.88;85.29
65989;HTU21D;53592;51.402;6.054;2022-12-10T08:40:49;0.90;85.08
65989;HTU21D;53592;51.402;6.054;2022-12-10T08:43:15;0.92;85.02
65989;HTU21D;53592;51.402;6.054;2022-12-10T08:45:40;0.90;84.77
65989;HTU21D;53592;51.402;6.054;2022-12-10T08:48:05;0.90;84.98
65989;HTU21D;53592;51.402;6.054;2022-12-10T08:50:31;0.94;85.00
65989;HTU21D;53592;51.402;6.054;2022-12-10T08:52:56;0.97;84.74
65989;HTU21D;53592;51.402;6.054;2022-12-10T08:55:22;0.99;84.88
65989;HTU21D;53592;51.402;6.054;2022-12-10T08:57:47;1.06;84.59
65989;HTU21D;53592;51.402;6.054;2022-12-10T09:00:13;1.02;84.20
65989;HTU21D;53592;51.402;6.054;2022-12-10T09:02:39;1.02;84.26
65989;HTU21D;53592;51.402;6.054;2022-12-10T09:05:05;0.96;84.34
65989;HTU21D;53592;51.402;6.054;2022-12-10T09:07:31;0.93;84.39
65989;HTU21D;53592;51.402;6.054;2022-12-10T09:09:57;0.93;84.38
65989;HTU21D;53592;51.402;6.054;2022-12-10T09:12:22;0.92;84.57
65989;HTU21D;53592;51.402;6.054;2022-12-10T09:14:48;0.94;84.68
65989;HTU21D;53592;51.402;6.054;2022-12-10T09:17:13;0.96;84.56
65989;HTU21D;53592;51.402;6.054;2022-12-10T09:19:39;0.96;84.70
65989;HTU21D;53592;51.402;6.054;2022-12-10T09:22:04;0.99;84.82
65989;HTU21D;53592;51.402;6.054;2022-12-10T09:24:30;1.06;84.77
65989;HTU21D;53592;51.402;6.054;2022-12-10T09:26:55;1.06;84.75
65989;HTU21D;53592;51.402;6.054;2022-12-10T09:29:21;1.06;84.58
65989;HTU21D;53592;51.402;6.054;2022-12-10T09:31:50;1.08;84.74
65989;HTU21D;53592;51.402;6.054;2022-12-10T09:36:53;1.05;84.68
65989;HTU21D;53592;51.402;6.054;2022-12-10T09:39:19;1.10;84.69
65989;HTU21D;53592;51.402;6.054;2022-12-10T09:42:07;1.12;84.19
65989;HTU21D;53592;51.402;6.054;2022-12-10T09:47:16;1.14;84.02
65989;HTU21D;53592;51.402;6.054;2022-12-10T09:53:11;1.10;84.07
65989;HTU21D;53592;51.402;6.054;2022-12-10T09:55:43;1.12;84.14
65989;HTU21D;53592;51.402;6.054;2022-12-10T09:58:20;1.12;84.27
65989;HTU21D;53592;51.402;6.054;2022-12-10T10:00:49;1.16;84.45
65989;HTU21D;53592;51.402;6.054;2022-12-10T10:03:16;1.23;84.58
65989;HTU21D;53592;51.402;6.054;2022-12-10T10:05:46;1.27;84.45
65989;HTU21D;53592;51.402;6.054;2022-12-10T10:08:28;1.29;84.34
65989;HTU21D;53592;51.402;6.054;2022-12-10T10:10:55;1.36;84.19
65989;HTU21D;53592;51.402;6.054;2022-12-10T10:13:33;1.38;84.11
65989;HTU21D;53592;51.402;6.054;2022-12-10T10:19:12;1.41;83.88
65989;HTU21D;53592;51.402;6.054;2022-12-10T10:21:42;1.41;83.55
65989;HTU21D;53592;51.402;6.054;2022-12-10T10:24:15;1.39;83.64
65989;HTU21D;53592;51.402;6.054;2022-12-10T10:26:42;1.39;83.24
65989;HTU21D;53592;51.402;6.054;2022-12-10T10:29:11;1.38;83.59
65989;HTU21D;53592;51.402;6.054;2022-12-10T10:31:40;1.34;83.58
65989;HTU21D;53592;51.402;6.054;2022-12-10T10:34:15;1.34;83.61
65989;HTU21D;53592;51.402;6.054;2022-12-10T10:36:42;1.33;83.67
65989;HTU21D;53592;51.402;6.054;2022-12-10T10:39:29;1.25;83.98
65989;HTU21D;53592;51.402;6.054;2022-12-10T10:41:58;1.29;83.58
65989;HTU21D;53592;51.402;6.054;2022-12-10T10:44:28;1.22;83.93
65989;HTU21D;53592;51.402;6.054;2022-12-10T10:46:58;1.22;84.17
65989;HTU21D;53592;51.402;6.054;2022-12-10T10:51:53;1.28;84.00
65989;HTU21D;53592;51.402;6.054;2022-12-10T10:54:40;1.28;84.23
65989;HTU21D;53592;51.402;6.054;2022-12-10T10:59:39;1.33;84.15
65989;HTU21D;53592;51.402;6.054;2022-12-10T11:02:25;1.34;84.32
65989;HTU21D;53592;51.402;6.054;2022-12-10T11:04:54;1.38;84.20
65989;HTU21D;53592;51.402;6.054;2022-12-10T11:09:55;1.48;84.31
65989;HTU21D;53592;51.402;6.054;2022-12-10T11:12:54;1.56;84.10
65989;HTU21D;53592;51.402;6.054;2022-12-10T11:17:55;1.57;83.88
65989;HTU21D;53592;51.402;6.054;2022-12-10T11:22:55;1.60;84.03
65989;HTU21D;53592;51.402;6.054;2022-12-10T11:25:43;1.60;83.81
65989;HTU21D;53592;51.402;6.054;2022-12-10T11:28:28;1.64;84.05
65989;HTU21D;53592;51.402;6.054;2022-12-10T11:34:42;1.64;83.95
65989;HTU21D;53592;51.402;6.054;2022-12-10T12:03:20;1.79;84.09
65989;HTU21D;53592;51.402;6.054;2022-12-10T12:08:53;1.79;83.83
65989;HTU21D;53592;51.402;6.054;2022-12-10T12:17:11;1.72;83.71
65989;HTU21D;53592;51.402;6.054;2022-12-10T12:19:44;1.69;83.78
65989;HTU21D;53592;51.402;6.054;2022-12-10T12:22:30;1.72;84.10
65989;HTU21D;53592;51.402;6.054;2022-12-10T12:25:10;1.78;84.11
65989;HTU21D;53592;51.402;6.054;2022-12-10T12:27:48;1.82;84.23
65989;HTU21D;53592;51.402;6.054;2022-12-10T12:30:20;1.88;84.05
65989;HTU21D;53592;51.402;6.054;2022-12-10T12:33:02;1.87;84.05
65989;HTU21D;53592;51.402;6.054;2022-12-10T12:35:49;1.91;83.85
65989;HTU21D;53592;51.402;6.054;2022-12-10T12:41:10;1.87;83.75
65989;HTU21D;53592;51.402;6.054;2022-12-10T12:46:44;1.83;83.68
65989;HTU21D;53592;51.402;6.054;2022-12-10T12:49:28;1.81;83.84
65989;HTU21D;53592;51.402;6.054;2022-12-10T12:55:04;1.84;83.88
65989;HTU21D;53592;51.402;6.054;2022-12-10T12:57:44;1.88;83.86
65989;HTU21D;53592;51.402;6.054;2022-12-10T13:00:18;1.88;83.69
65989;HTU21D;53592;51.402;6.054;2022-12-10T13:03:08;1.86;83.57
65989;HTU21D;53592;51.402;6.054;2022-12-10T13:05:43;1.88;83.65
65989;HTU21D;53592;51.402;6.054;2022-12-10T13:13:37;1.82;83.51
65989;HTU21D;53592;51.402;6.054;2022-12-10T13:22:12;1.64;83.86
65989;HTU21D;53592;51.402;6.054;2022-12-10T13:25:16;1.67;83.88
65989;HTU21D;53592;51.402;6.054;2022-12-10T13:27:57;1.66;83.67
65989;HTU21D;53592;51.402;6.054;2022-12-10T13:30:41;1.61;83.85
65989;HTU21D;53592;51.402;6.054;2022-12-10T13:33:18;1.58;83.93
65989;HTU21D;53592;51.402;6.054;2022-12-10T13:36:04;1.53;84.04
65989;HTU21D;53592;51.402;6.054;2022-12-10T13:38:43;1.50;84.17
65989;HTU21D;53592;51.402;6.054;2022-12-10T13:41:19;1.42;84.48
65989;HTU21D;53592;51.402;6.054;2022-12-10T13:44:37;1.50;84.83
65989;HTU21D;53592;51.402;6.054;2022-12-10T13:49:55;1.40;85.00
65989;HTU21D;53592;51.402;6.054;2022-12-10T13:55:38;1.51;85.24
65989;HTU21D;53592;51.402;6.054;2022-12-10T14:06:35;1.61;84.91
65989;HTU21D;53592;51.402;6.054;2022-12-10T14:09:17;1.62;84.99
65989;HTU21D;53592;51.402;6.054;2022-12-10T14:12:07;1.67;85.00
65989;HTU21D;53592;51.402;6.054;2022-12-10T14:14:40;1.70;84.78
65989;HTU21D;53592;51.402;6.054;2022-12-10T14:17:14;1.71;84.70
65989;HTU21D;53592;51.402;6.054;2022-12-10T14:19:42;1.75;84.71
65989;HTU21D;53592;51.402;6.054;2022-12-10T14:22:22;1.76;84.60
65989;HTU21D;53592;51.402;6.054;2022-12-10T14:24:50;1.78;84.30
65989;HTU21D;53592;51.402;6.054;2022-12-10T14:27:19;1.72;84.26
65989;HTU21D;53592;51.402;6.054;2022-12-10T14:30:03;1.67;84.33
65989;HTU21D;53592;51.402;6.054;2022-12-10T14:32:34;1.65;84.53
65989;HTU21D;53592;51.402;6.054;2022-12-10T14:35:06;1.66;84.72
65989;HTU21D;53592;51.402;6.054;2022-12-10T14:37:36;1.69;84.61
65989;HTU21D;53592;51.402;6.054;2022-12-10T14:40:05;1.69;84.60
65989;HTU21D;53592;51.402;6.054;2022-12-10T14:42:32;1.70;84.58
65989;HTU21D;53592;51.402;6.054;2022-12-10T14:45:05;1.73;84.56
65989;HTU21D;53592;51.402;6.054;2022-12-10T14:47:38;1.71;84.50
65989;HTU21D;53592;51.402;6.054;2022-12-10T14:50:11;1.68;84.13
65989;HTU21D;53592;51.402;6.054;2022-12-10T14:52:44;1.63;84.48
65989;HTU21D;53592;51.402;6.054;2022-12-10T14:55:17;1.65;84.62
65989;HTU21D;53592;51.402;6.054;2022-12-10T14:57:58;1.66;84.32
65989;HTU21D;53592;51.402;6.054;2022-12-10T15:00:24;1.54;84.32
65989;HTU21D;53592;51.402;6.054;2022-12-10T15:02:55;1.49;84.18
65989;HTU21D;53592;51.402;6.054;2022-12-10T15:05:24;1.40;84.52
65989;HTU21D;53592;51.402;6.054;2022-12-10T15:08:03;1.37;84.78
65989;HTU21D;53592;51.402;6.054;2022-12-10T15:10:38;1.31;84.74
65989;HTU21D;53592;51.402;6.054;2022-12-10T15:13:06;1.24;84.53
65989;HTU21D;53592;51.402;6.054;2022-12-10T15:15:38;1.10;85.18
65989;HTU21D;53592;51.402;6.054;2022-12-10T15:25:52;1.11;86.04
65989;HTU21D;53592;51.402;6.054;2022-12-10T15:28:34;1.11;86.05
65989;HTU21D;53592;51.402;6.054;2022-12-10T15:33:56;1.12;86.37
65989;HTU21D;53592;51.402;6.054;2022-12-10T15:36:41;1.20;86.55
65989;HTU21D;53592;51.402;6.054;2022-12-10T15:39:13;1.27;86.45
65989;HTU21D;53592;51.402;6.054;2022-12-10T15:41:46;1.33;86.09
65989;HTU21D;53592;51.402;6.054;2022-12-10T15:49:40;1.28;85.91
65989;HTU21D;53592;51.402;6.054;2022-12-10T15:52:06;1.26;85.79
65989;HTU21D;53592;51.402;6.054;2022-12-10T15:57:28;1.32;85.75
65989;HTU21D;53592;51.402;6.054;2022-12-10T15:59:57;1.28;85.72
65989;HTU21D;53592;51.402;6.054;2022-12-10T16:02:36;0.00;86.08
65989;HTU21D;53592;51.402;6.054;2022-12-10T16:05:11;1.45;86.00
65989;HTU21D;53592;51.402;6.054;2022-12-10T16:07:41;1.52;85.94
65989;HTU21D;53592;51.402;6.054;2022-12-10T16:10:10;1.60;85.82
65989;HTU21D;53592;51.402;6.054;2022-12-10T16:12:52;1.67;85.64
65989;HTU21D;53592;51.402;6.054;2022-12-10T16:16:08;1.73;85.30
65989;HTU21D;53592;51.402;6.054;2022-12-10T16:28:32;1.65;84.57
65989;HTU21D;53592;51.402;6.054;2022-12-10T16:30:58;1.60;84.64
65989;HTU21D;53592;51.402;6.054;2022-12-10T16:33:26;1.55;84.90
65989;HTU21D;53592;51.402;6.054;2022-12-10T16:35:53;1.53;85.00
65989;HTU21D;53592;51.402;6.054;2022-12-10T16:38:20;1.52;85.21
65989;HTU21D;53592;51.402;6.054;2022-12-10T16:40:46;1.54;85.18
65989;HTU21D;53592;51.402;6.054;2022-12-10T16:43:15;1.56;85.16
65989;HTU21D;53592;51.402;6.054;2022-12-10T16:45:42;1.55;85.06
65989;HTU21D;53592;51.402;6.054;2022-12-10T16:48:08;1.56;84.93
65989;HTU21D;53592;51.402;6.054;2022-12-10T16:50:34;1.57;85.39
65989;HTU21D;53592;51.402;6.054;2022-12-10T16:53:14;1.58;85.26
65989;HTU21D;53592;51.402;6.054;2022-12-10T16:55:40;1.61;85.10
65989;HTU21D;53592;51.402;6.054;2022-12-10T16:58:09;1.57;85.38
65989;HTU21D;53592;51.402;6.054;2022-12-10T17:00:35;1.56;85.18
65989;HTU21D;53592;51.402;6.054;2022-12-10T17:03:01;1.60;85.38
65989;HTU21D;53592;51.402;6.054;2022-12-10T17:05:39;1.57;85.26
65989;HTU21D;53592;51.402;6.054;2022-12-10T17:08:06;1.53;85.53
65989;HTU21D;53592;51.402;6.054;2022-12-10T17:10:32;1.63;85.53
65989;HTU21D;53592;51.402;6.054;2022-12-10T17:13:17;1.62;85.53
65989;HTU21D;53592;51.402;6.054;2022-12-10T17:15:43;1.64;85.59
65989;HTU21D;53592;51.402;6.054;2022-12-10T17:18:14;1.66;85.63
65989;HTU21D;53592;51.402;6.054;2022-12-10T17:20:39;1.65;85.61
65989;HTU21D;53592;51.402;6.054;2022-12-10T17:23:05;1.66;85.41
65989;HTU21D;53592;51.402;6.054;2022-12-10T17:25:31;1.68;85.64
65989;HTU21D;53592;51.402;6.054;2022-12-10T17:27:57;1.72;85.70
65989;HTU21D;53592;51.402;6.054;2022-12-10T17:30:23;1.78;85.58
65989;HTU21D;53592;51.402;6.054;2022-12-10T17:32:49;1.81;85.57
65989;HTU21D;53592;51.402;6.054;2022-12-10T17:35:15;1.82;85.39
65989;HTU21D;53592;51.402;6.054;2022-12-10T17:37:41;1.83;85.38
65989;HTU21D;53592;51.402;6.054;2022-12-10T17:40:19;1.83;85.46
65989;HTU21D;53592;51.402;6.054;2022-12-10T17:42:46;1.87;85.43
65989;HTU21D;53592;51.402;6.054;2022-12-10T17:45:13;1.93;85.09
65989;HTU21D;53592;51.402;6.054;2022-12-10T17:47:40;1.77;85.09
65989;HTU21D;53592;51.402;6.054;2022-12-10T17:50:31;1.68;85.28
65989;HTU21D;53592;51.402;6.054;2022-12-10T17:53:01;1.55;85.52
65989;HTU21D;53592;51.402;6.054;2022-12-10T17:55:28;1.52;86.04
65989;HTU21D;53592;51.402;6.054;2022-12-10T17:57:54;1.55;86.20
65989;HTU21D;53592;51.402;6.054;2022-12-10T18:00:22;1.55;86.06
65989;HTU21D;53592;51.402;6.054;2022-12-10T18:02:48;1.51;86.26
65989;HTU21D;53592;51.402;6.054;2022-12-10T18:05:15;1.53;86.55
65989;HTU21D;53592;51.402;6.054;2022-12-10T18:07:41;1.61;86.48
65989;HTU21D;53592;51.402;6.054;2022-12-10T18:10:16;1.66;86.45
65989;HTU21D;53592;51.402;6.054;2022-12-10T18:12:42;1.72;86.52
65989;HTU21D;53592;51.402;6.054;2022-12-10T18:15:10;1.80;86.25
65989;HTU21D;53592;51.402;6.054;2022-12-10T18:17:35;1.81;86.05
65989;HTU21D;53592;51.402;6.054;2022-12-10T18:20:01;1.80;85.83
65989;HTU21D;53592;51.402;6.054;2022-12-10T18:22:27;1.77;85.84
65989;HTU21D;53592;51.402;6.054;2022-12-10T18:24:52;1.79;85.90
65989;HTU21D;53592;51.402;6.054;2022-12-10T18:27:20;1.73;85.74
65989;HTU21D;53592;51.402;6.054;2022-12-10T18:29:45;1.77;86.22